YYZ weather

Lester B. Pearson International Airport
Toronto, Ontario, Canada

Public forecast

Using degrees Celsius for public forecast. Weather courtesy of forecast.io.

METAR (pilot weather report)

Retrieved 2019/04/23 10:00 UTC (2 minutes ago):

CYYZ 231000Z 07002KT 15SM FEW110 BKN130 09/06 A2997 RMK AC2AS5 SLP154

TAF (pilot weather forecast)

Retrieved 2019/04/23 09:42 UTC (20 minutes ago):

TAF CYYZ 230839Z 2309/2412 12005KT P6SM BKN150 FM231400 14010KT P6SM BKN100 TEMPO 2314/2320 P6SM -SHRA BKN040 OVC080 PROB30 2315/2320 VRB15G30KT 2SM TSRA BR BKN020 OVC040CB FM232000 20012KT P6SM -SHRA FEW020 BKN030 OVC080 BECMG 2320/2322 27020G35KT FM232200 27020G35KT P6SM BKN025 BECMG 2400/2402 30015G25KT BECMG 2404/2406 29015KT RMK NXT FCST BY 231200Z